sensor_id;sensor_type;location;lat;lon;timestamp;pressure;altitude;pressure_sealevel;temperature
51693;BMP280;37777;53.066;21.638;2024-01-15T00:07:02;98178.97;;;0.69
51693;BMP280;37777;53.066;21.638;2024-01-15T00:14:04;98176.31;;;0.69
51693;BMP280;37777;53.066;21.638;2024-01-15T00:21:06;98162.38;;;0.72
51693;BMP280;37777;53.066;21.638;2024-01-15T00:28:07;98145.94;;;0.70
51693;BMP280;37777;53.066;21.638;2024-01-15T00:35:09;98137.94;;;0.70
51693;BMP280;37777;53.066;21.638;2024-01-15T00:42:10;98131.84;;;0.70
51693;BMP280;37777;53.066;21.638;2024-01-15T00:49:13;98123.53;;;0.71
51693;BMP280;37777;53.066;21.638;2024-01-15T00:56:15;98112.91;;;0.71
51693;BMP280;37777;53.066;21.638;2024-01-15T01:03:21;98108.03;;;0.73
51693;BMP280;37777;53.066;21.638;2024-01-15T01:10:23;98095.81;;;0.72
51693;BMP280;37777;53.066;21.638;2024-01-15T01:17:25;98086.41;;;0.75
51693;BMP280;37777;53.066;21.638;2024-01-15T01:24:26;98068.56;;;0.75
51693;BMP280;37777;53.066;21.638;2024-01-15T01:31:28;98061.03;;;0.77
51693;BMP280;37777;53.066;21.638;2024-01-15T01:38:30;98053.03;;;0.77
51693;BMP280;37777;53.066;21.638;2024-01-15T01:45:31;98039.28;;;0.75
51693;BMP280;37777;53.066;21.638;2024-01-15T01:52:34;98029.28;;;0.72
51693;BMP280;37777;53.066;21.638;2024-01-15T01:59:36;98013.84;;;0.65
51693;BMP280;37777;53.066;21.638;2024-01-15T02:06:37;98017.63;;;0.64
51693;BMP280;37777;53.066;21.638;2024-01-15T02:13:39;98016.06;;;0.63
51693;BMP280;37777;53.066;21.638;2024-01-15T02:20:41;97999.75;;;0.65
51693;BMP280;37777;53.066;21.638;2024-01-15T02:27:42;97984.25;;;0.67
51693;BMP280;37777;53.066;21.638;2024-01-15T02:43:07;97975.16;;;0.68
51693;BMP280;37777;53.066;21.638;2024-01-15T02:50:08;97962.63;;;0.69
51693;BMP280;37777;53.066;21.638;2024-01-15T02:57:22;97948.91;;;0.66
51693;BMP280;37777;53.066;21.638;2024-01-15T03:04:24;97945.91;;;0.68
51693;BMP280;37777;53.066;21.638;2024-01-15T03:11:25;97925.25;;;0.65
51693;BMP280;37777;53.066;21.638;2024-01-15T03:18:27;97921.06;;;0.64
51693;BMP280;37777;53.066;21.638;2024-01-15T03:25:29;97909.75;;;0.67
51693;BMP280;37777;53.066;21.638;2024-01-15T03:32:30;97895.88;;;0.61
51693;BMP280;37777;53.066;21.638;2024-01-15T03:39:32;97889.91;;;0.64
51693;BMP280;37777;53.066;21.638;2024-01-15T03:46:33;97875.47;;;0.65
51693;BMP280;37777;53.066;21.638;2024-01-15T03:53:35;97868.47;;;0.61
51693;BMP280;37777;53.066;21.638;2024-01-15T04:00:36;97866.38;;;0.54
51693;BMP280;37777;53.066;21.638;2024-01-15T04:07:38;97845.88;;;0.55
51693;BMP280;37777;53.066;21.638;2024-01-15T04:14:39;97854.97;;;0.54
51693;BMP280;37777;53.066;21.638;2024-01-15T04:21:41;97842.53;;;0.58
51693;BMP280;37777;53.066;21.638;2024-01-15T04:28:42;97830.34;;;0.57
51693;BMP280;37777;53.066;21.638;2024-01-15T04:35:44;97821.69;;;0.60
51693;BMP280;37777;53.066;21.638;2024-01-15T04:42:47;97798.09;;;0.58
51693;BMP280;37777;53.066;21.638;2024-01-15T04:49:48;97790.09;;;0.58
51693;BMP280;37777;53.066;21.638;2024-01-15T04:56:50;97787.34;;;0.55
51693;BMP280;37777;53.066;21.638;2024-01-15T05:03:52;97764.41;;;0.50
51693;BMP280;37777;53.066;21.638;2024-01-15T05:10:56;97763.41;;;0.55
51693;BMP280;37777;53.066;21.638;2024-01-15T05:17:57;97753.06;;;0.53
51693;BMP280;37777;53.066;21.638;2024-01-15T05:24:59;97750.41;;;0.53
51693;BMP280;37777;53.066;21.638;2024-01-15T05:32:00;97739.69;;;0.49
51693;BMP280;37777;53.066;21.638;2024-01-15T05:39:03;97751.22;;;0.54
51693;BMP280;37777;53.066;21.638;2024-01-15T05:46:05;97735.13;;;0.50
51693;BMP280;37777;53.066;21.638;2024-01-15T05:53:06;97740.56;;;0.54
51693;BMP280;37777;53.066;21.638;2024-01-15T06:00:08;97729.81;;;0.50
51693;BMP280;37777;53.066;21.638;2024-01-15T06:07:10;97732.13;;;0.52
51693;BMP280;37777;53.066;21.638;2024-01-15T06:14:11;97723.81;;;0.53
51693;BMP280;37777;53.066;21.638;2024-01-15T06:21:13;97714.38;;;0.56
51693;BMP280;37777;53.066;21.638;2024-01-15T06:28:15;97702.63;;;0.57
51693;BMP280;37777;53.066;21.638;2024-01-15T06:35:17;97701.97;;;0.60
51693;BMP280;37777;53.066;21.638;2024-01-15T06:42:25;97696.22;;;0.58
51693;BMP280;37777;53.066;21.638;2024-01-15T06:49:26;97704.97;;;0.58
51693;BMP280;37777;53.066;21.638;2024-01-15T06:56:28;97692.09;;;0.60
51693;BMP280;37777;53.066;21.638;2024-01-15T07:03:29;97682.56;;;0.59
51693;BMP280;37777;53.066;21.638;2024-01-15T07:10:31;97682.91;;;0.58
51693;BMP280;37777;53.066;21.638;2024-01-15T07:17:37;97689.69;;;0.55
51693;BMP280;37777;53.066;21.638;2024-01-15T07:24:43;97683.91;;;0.53
51693;BMP280;37777;53.066;21.638;2024-01-15T07:31:51;97674.41;;;0.52
51693;BMP280;37777;53.066;21.638;2024-01-15T07:38:53;97670.28;;;0.55
51693;BMP280;37777;53.066;21.638;2024-01-15T07:45:54;97669.16;;;0.56
51693;BMP280;37777;53.066;21.638;2024-01-15T07:52:56;97660.88;;;0.57
51693;BMP280;37777;53.066;21.638;2024-01-15T07:59:57;97665.41;;;0.57
51693;BMP280;37777;53.066;21.638;2024-01-15T08:06:58;97669.16;;;0.56
51693;BMP280;37777;53.066;21.638;2024-01-15T08:14:00;97669.38;;;0.63
51693;BMP280;37777;53.066;21.638;2024-01-15T08:21:02;97668.34;;;0.67
51693;BMP280;37777;53.066;21.638;2024-01-15T08:28:22;97680.31;;;0.74
51693;BMP280;37777;53.066;21.638;2024-01-15T08:35:24;97672.03;;;0.63
51693;BMP280;37777;53.066;21.638;2024-01-15T08:42:28;97665.63;;;0.64
51693;BMP280;37777;53.066;21.638;2024-01-15T08:49:29;97674.03;;;0.66
51693;BMP280;37777;53.066;21.638;2024-01-15T08:56:31;97691.06;;;0.77
51693;BMP280;37777;53.066;21.638;2024-01-15T09:03:32;97697.63;;;0.80
51693;BMP280;37777;53.066;21.638;2024-01-15T09:10:35;97691.94;;;0.81
51693;BMP280;37777;53.066;21.638;2024-01-15T09:17:37;97710.81;;;0.76
51693;BMP280;37777;53.066;21.638;2024-01-15T09:24:40;97696.41;;;0.65
51693;BMP280;37777;53.066;21.638;2024-01-15T09:40:06;97695.03;;;0.83
51693;BMP280;37777;53.066;21.638;2024-01-15T09:47:08;97694.91;;;0.92
51693;BMP280;37777;53.066;21.638;2024-01-15T10:10:54;97678.81;;;0.89
51693;BMP280;37777;53.066;21.638;2024-01-15T10:17:55;97661.69;;;1.02
51693;BMP280;37777;53.066;21.638;2024-01-15T10:33:32;97653.69;;;1.02
51693;BMP280;37777;53.066;21.638;2024-01-15T10:40:33;97665.03;;;0.99
51693;BMP280;37777;53.066;21.638;2024-01-15T10:47:36;97654.22;;;0.92
51693;BMP280;37777;53.066;21.638;2024-01-15T10:54:38;97657.56;;;1.05
51693;BMP280;37777;53.066;21.638;2024-01-15T11:01:42;97661.44;;;1.07
51693;BMP280;37777;53.066;21.638;2024-01-15T11:08:44;97650.00;;;1.35
51693;BMP280;37777;53.066;21.638;2024-01-15T11:23:03;97646.78;;;1.13
51693;BMP280;37777;53.066;21.638;2024-01-15T11:30:07;97631.91;;;1.12
51693;BMP280;37777;53.066;21.638;2024-01-15T11:37:10;97628.50;;;0.83
51693;BMP280;37777;53.066;21.638;2024-01-15T11:44:15;97627.34;;;0.69
51693;BMP280;37777;53.066;21.638;2024-01-15T11:51:18;97624.50;;;0.61
51693;BMP280;37777;53.066;21.638;2024-01-15T12:15:04;97616.34;;;0.70
51693;BMP280;37777;53.066;21.638;2024-01-15T12:22:05;97599.22;;;0.83
51693;BMP280;37777;53.066;21.638;2024-01-15T12:29:19;97579.94;;;1.03
51693;BMP280;37777;53.066;21.638;2024-01-15T12:36:22;97574.78;;;0.94
51693;BMP280;37777;53.066;21.638;2024-01-15T12:43:23;97585.31;;;0.90
51693;BMP280;37777;53.066;21.638;2024-01-15T12:50:25;97587.13;;;0.86
51693;BMP280;37777;53.066;21.638;2024-01-15T12:57:29;97594.59;;;0.80
51693;BMP280;37777;53.066;21.638;2024-01-15T13:04:31;97595.50;;;0.72
51693;BMP280;37777;53.066;21.638;2024-01-15T13:11:33;97580.66;;;0.71
51693;BMP280;37777;53.066;21.638;2024-01-15T13:18:34;97581.09;;;0.73
51693;BMP280;37777;53.066;21.638;2024-01-15T13:25:36;97581.13;;;0.61
51693;BMP280;37777;53.066;21.638;2024-01-15T13:32:39;97589.34;;;0.56
51693;BMP280;37777;53.066;21.638;2024-01-15T13:39:40;97591.59;;;0.54
51693;BMP280;37777;53.066;21.638;2024-01-15T13:46:42;97592.69;;;0.53
51693;BMP280;37777;53.066;21.638;2024-01-15T13:53:43;97595.34;;;0.53
51693;BMP280;37777;53.066;21.638;2024-01-15T14:00:45;97589.28;;;0.52
51693;BMP280;37777;53.066;21.638;2024-01-15T14:07:47;97596.91;;;0.54
51693;BMP280;37777;53.066;21.638;2024-01-15T14:14:48;97598.34;;;0.51
51693;BMP280;37777;53.066;21.638;2024-01-15T14:21:50;97585.97;;;0.43
51693;BMP280;37777;53.066;21.638;2024-01-15T14:28:51;97576.78;;;0.40
51693;BMP280;37777;53.066;21.638;2024-01-15T14:35:53;97592.06;;;0.43
51693;BMP280;37777;53.066;21.638;2024-01-15T14:42:55;97580.56;;;0.39
51693;BMP280;37777;53.066;21.638;2024-01-15T14:49:56;97577.66;;;0.44
51693;BMP280;37777;53.066;21.638;2024-01-15T14:56:58;97568.81;;;0.40
51693;BMP280;37777;53.066;21.638;2024-01-15T15:04:00;97570.78;;;0.43
51693;BMP280;37777;53.066;21.638;2024-01-15T15:11:04;97562.56;;;0.48
51693;BMP280;37777;53.066;21.638;2024-01-15T15:18:05;97570.97;;;0.50
51693;BMP280;37777;53.066;21.638;2024-01-15T15:25:07;97588.13;;;0.53
51693;BMP280;37777;53.066;21.638;2024-01-15T15:32:10;97627.47;;;0.31
51693;BMP280;37777;53.066;21.638;2024-01-15T15:39:14;97598.19;;;-0.22
51693;BMP280;37777;53.066;21.638;2024-01-15T15:46:17;97608.03;;;-0.10
51693;BMP280;37777;53.066;21.638;2024-01-15T15:53:19;97622.09;;;0.03
51693;BMP280;37777;53.066;21.638;2024-01-15T16:00:21;97615.22;;;0.02
51693;BMP280;37777;53.066;21.638;2024-01-15T16:07:23;97615.56;;;-0.12
51693;BMP280;37777;53.066;21.638;2024-01-15T16:14:29;97603.72;;;-0.14
51693;BMP280;37777;53.066;21.638;2024-01-15T16:21:31;97607.25;;;-0.23
51693;BMP280;37777;53.066;21.638;2024-01-15T16:28:52;97596.75;;;-0.31
51693;BMP280;37777;53.066;21.638;2024-01-15T16:35:55;97600.50;;;-0.32
51693;BMP280;37777;53.066;21.638;2024-01-15T16:42:57;97594.75;;;-0.35
51693;BMP280;37777;53.066;21.638;2024-01-15T16:49:58;97591.56;;;-0.28
51693;BMP280;37777;53.066;21.638;2024-01-15T16:57:00;97608.16;;;-0.19
51693;BMP280;37777;53.066;21.638;2024-01-15T17:04:02;97597.63;;;-0.15
51693;BMP280;37777;53.066;21.638;2024-01-15T17:11:03;97595.75;;;-0.14
51693;BMP280;37777;53.066;21.638;2024-01-15T17:18:05;97604.28;;;-0.09
51693;BMP280;37777;53.066;21.638;2024-01-15T17:25:07;97602.19;;;-0.28
51693;BMP280;37777;53.066;21.638;2024-01-15T17:32:08;97613.00;;;-0.33
51693;BMP280;37777;53.066;21.638;2024-01-15T17:39:10;97613.44;;;-0.43
51693;BMP280;37777;53.066;21.638;2024-01-15T17:46:12;97599.25;;;-0.47
51693;BMP280;37777;53.066;21.638;2024-01-15T17:53:15;97602.91;;;-0.52
51693;BMP280;37777;53.066;21.638;2024-01-15T18:00:35;97619.41;;;-0.46
51693;BMP280;37777;53.066;21.638;2024-01-15T18:07:37;97622.06;;;-0.46
51693;BMP280;37777;53.066;21.638;2024-01-15T18:14:38;97620.50;;;-0.47
51693;BMP280;37777;53.066;21.638;2024-01-15T18:47:22;97668.59;;;-0.74
51693;BMP280;37777;53.066;21.638;2024-01-15T18:54:24;97675.13;;;-0.71
51693;BMP280;37777;53.066;21.638;2024-01-15T19:26:38;97700.28;;;-0.90
51693;BMP280;37777;53.066;21.638;2024-01-15T19:58:14;97739.00;;;-0.89
51693;BMP280;37777;53.066;21.638;2024-01-15T20:05:16;97740.44;;;-0.91
51693;BMP280;37777;53.066;21.638;2024-01-15T20:20:46;97769.97;;;-0.93
51693;BMP280;37777;53.066;21.638;2024-01-15T20:27:48;97773.47;;;-1.01
51693;BMP280;37777;53.066;21.638;2024-01-15T20:43:12;97781.13;;;-1.29
51693;BMP280;37777;53.066;21.638;2024-01-15T20:50:14;97790.50;;;-1.32
51693;BMP280;37777;53.066;21.638;2024-01-15T20:57:15;97809.22;;;-1.37
51693;BMP280;37777;53.066;21.638;2024-01-15T21:04:17;97816.06;;;-1.36
51693;BMP280;37777;53.066;21.638;2024-01-15T21:11:18;97837.31;;;-1.36
51693;BMP280;37777;53.066;21.638;2024-01-15T21:18:20;97845.25;;;-1.36
51693;BMP280;37777;53.066;21.638;2024-01-15T21:25:21;97846.66;;;-1.39
51693;BMP280;37777;53.066;21.638;2024-01-15T21:32:23;97866.78;;;-1.38
51693;BMP280;37777;53.066;21.638;2024-01-15T21:39:25;97878.34;;;-1.42
51693;BMP280;37777;53.066;21.638;2024-01-15T21:46:26;97879.00;;;-1.45
51693;BMP280;37777;53.066;21.638;2024-01-15T21:53:28;97892.44;;;-1.51
51693;BMP280;37777;53.066;21.638;2024-01-15T22:00:29;97897.72;;;-1.51
51693;BMP280;37777;53.066;21.638;2024-01-15T22:07:31;97909.91;;;-1.50
51693;BMP280;37777;53.066;21.638;2024-01-15T22:14:32;97932.34;;;-1.47
51693;BMP280;37777;53.066;21.638;2024-01-15T22:21:41;97945.13;;;-1.49
51693;BMP280;37777;53.066;21.638;2024-01-15T22:28:43;97964.34;;;-1.52
51693;BMP280;37777;53.066;21.638;2024-01-15T22:35:45;97983.72;;;-1.52
51693;BMP280;37777;53.066;21.638;2024-01-15T22:42:47;97989.16;;;-1.57
51693;BMP280;37777;53.066;21.638;2024-01-15T22:49:48;98003.50;;;-1.67
51693;BMP280;37777;53.066;21.638;2024-01-15T22:56:49;98026.75;;;-1.72
51693;BMP280;37777;53.066;21.638;2024-01-15T23:03:51;98037.69;;;-1.83
51693;BMP280;37777;53.066;21.638;2024-01-15T23:10:52;98035.50;;;-1.80
51693;BMP280;37777;53.066;21.638;2024-01-15T23:17:54;98063.03;;;-1.90
51693;BMP280;37777;53.066;21.638;2024-01-15T23:24:57;98076.44;;;-2.04
51693;BMP280;37777;53.066;21.638;2024-01-15T23:31:59;98089.03;;;-2.19
51693;BMP280;37777;53.066;21.638;2024-01-15T23:39:00;98105.63;;;-2.36
51693;BMP280;37777;53.066;21.638;2024-01-15T23:46:02;98111.03;;;-2.50
51693;BMP280;37777;53.066;21.638;2024-01-15T23:53:14;98113.06;;;-2.55
